sensor_id;sensor_type;location;lat;lon;timestamp;P1;durP1;ratioP1;P2;durP2;ratioP2
1380;SDS011;684;48.342;10.096;2022-09-09T00:00:19;6.10;;;2.27;;
1380;SDS011;684;48.342;10.096;2022-09-09T00:02:49;5.90;;;1.60;;
1380;SDS011;684;48.342;10.096;2022-09-09T00:05:25;7.97;;;2.07;;
1380;SDS011;684;48.342;10.096;2022-09-09T00:07:58;5.47;;;2.13;;
1380;SDS011;684;48.342;10.096;2022-09-09T00:10:29;9.03;;;2.40;;
1380;SDS011;684;48.342;10.096;2022-09-09T00:13:00;8.23;;;2.33;;
1380;SDS011;684;48.342;10.096;2022-09-09T00:15:36;7.40;;;1.83;;
1380;SDS011;684;48.342;10.096;2022-09-09T00:18:07;5.77;;;2.00;;
1380;SDS011;684;48.342;10.096;2022-09-09T00:20:42;4.27;;;2.10;;
1380;SDS011;684;48.342;10.096;2022-09-09T00:23:17;4.43;;;1.53;;
1380;SDS011;684;48.342;10.096;2022-09-09T00:25:51;6.20;;;2.33;;
1380;SDS011;684;48.342;10.096;2022-09-09T00:28:26;4.43;;;2.03;;
1380;SDS011;684;48.342;10.096;2022-09-09T00:30:57;9.47;;;5.53;;
1380;SDS011;684;48.342;10.096;2022-09-09T00:33:27;6.50;;;4.00;;
1380;SDS011;684;48.342;10.096;2022-09-09T00:35:57;9.60;;;2.60;;
1380;SDS011;684;48.342;10.096;2022-09-09T00:38:27;6.90;;;2.67;;
1380;SDS011;684;48.342;10.096;2022-09-09T00:41:00;6.17;;;2.27;;
1380;SDS011;684;48.342;10.096;2022-09-09T00:43:32;7.50;;;2.67;;
1380;SDS011;684;48.342;10.096;2022-09-09T00:46:13;5.60;;;3.07;;
1380;SDS011;684;48.342;10.096;2022-09-09T00:48:51;11.40;;;2.90;;
1380;SDS011;684;48.342;10.096;2022-09-09T00:51:25;7.30;;;2.43;;
1380;SDS011;684;48.342;10.096;2022-09-09T00:54:07;4.57;;;2.20;;
1380;SDS011;684;48.342;10.096;2022-09-09T00:56:46;5.20;;;2.50;;
1380;SDS011;684;48.342;10.096;2022-09-09T00:59:22;5.63;;;2.40;;
1380;SDS011;684;48.342;10.096;2022-09-09T01:01:56;7.00;;;2.40;;
1380;SDS011;684;48.342;10.096;2022-09-09T01:04:27;5.10;;;2.10;;
1380;SDS011;684;48.342;10.096;2022-09-09T01:07:02;6.60;;;2.57;;
1380;SDS011;684;48.342;10.096;2022-09-09T01:09:38;7.00;;;2.60;;
1380;SDS011;684;48.342;10.096;2022-09-09T01:12:17;5.97;;;2.40;;
1380;SDS011;684;48.342;10.096;2022-09-09T01:14:51;10.23;;;2.63;;
1380;SDS011;684;48.342;10.096;2022-09-09T01:17:24;8.90;;;2.60;;
1380;SDS011;684;48.342;10.096;2022-09-09T01:20:00;5.67;;;2.80;;
1380;SDS011;684;48.342;10.096;2022-09-09T01:22:33;7.17;;;2.80;;
1380;SDS011;684;48.342;10.096;2022-09-09T01:25:17;5.50;;;2.23;;
1380;SDS011;684;48.342;10.096;2022-09-09T01:27:57;7.33;;;2.33;;
1380;SDS011;684;48.342;10.096;2022-09-09T01:30:26;5.47;;;2.70;;
1380;SDS011;684;48.342;10.096;2022-09-09T01:32:54;6.40;;;2.43;;
1380;SDS011;684;48.342;10.096;2022-09-09T01:35:31;6.93;;;3.33;;
1380;SDS011;684;48.342;10.096;2022-09-09T01:38:04;7.40;;;2.20;;
1380;SDS011;684;48.342;10.096;2022-09-09T01:40:31;12.03;;;2.97;;
1380;SDS011;684;48.342;10.096;2022-09-09T01:43:00;6.83;;;2.80;;
1380;SDS011;684;48.342;10.096;2022-09-09T01:45:26;8.53;;;3.33;;
1380;SDS011;684;48.342;10.096;2022-09-09T01:47:54;9.40;;;2.87;;
1380;SDS011;684;48.342;10.096;2022-09-09T01:50:21;5.73;;;2.43;;
1380;SDS011;684;48.342;10.096;2022-09-09T01:52:49;7.23;;;2.60;;
1380;SDS011;684;48.342;10.096;2022-09-09T01:55:18;8.83;;;3.17;;
1380;SDS011;684;48.342;10.096;2022-09-09T01:57:55;5.37;;;2.73;;
1380;SDS011;684;48.342;10.096;2022-09-09T02:00:37;6.27;;;2.83;;
1380;SDS011;684;48.342;10.096;2022-09-09T02:03:12;9.10;;;2.77;;
1380;SDS011;684;48.342;10.096;2022-09-09T02:05:48;5.30;;;2.70;;
1380;SDS011;684;48.342;10.096;2022-09-09T02:08:23;5.60;;;2.77;;
1380;SDS011;684;48.342;10.096;2022-09-09T02:10:55;7.40;;;2.50;;
1380;SDS011;684;48.342;10.096;2022-09-09T02:13:27;6.40;;;3.00;;
1380;SDS011;684;48.342;10.096;2022-09-09T02:16:00;6.43;;;2.67;;
1380;SDS011;684;48.342;10.096;2022-09-09T02:18:32;5.70;;;2.63;;
1380;SDS011;684;48.342;10.096;2022-09-09T02:21:03;7.13;;;2.97;;
1380;SDS011;684;48.342;10.096;2022-09-09T02:23:31;5.23;;;2.67;;
1380;SDS011;684;48.342;10.096;2022-09-09T02:26:00;7.63;;;2.70;;
1380;SDS011;684;48.342;10.096;2022-09-09T02:28:30;6.07;;;2.80;;
1380;SDS011;684;48.342;10.096;2022-09-09T02:30:59;8.43;;;2.90;;
1380;SDS011;684;48.342;10.096;2022-09-09T02:33:28;5.40;;;2.57;;
1380;SDS011;684;48.342;10.096;2022-09-09T02:36:05;5.50;;;2.83;;
1380;SDS011;684;48.342;10.096;2022-09-09T02:38:36;7.60;;;3.37;;
1380;SDS011;684;48.342;10.096;2022-09-09T02:41:08;6.23;;;3.83;;
1380;SDS011;684;48.342;10.096;2022-09-09T02:43:37;6.30;;;3.03;;
1380;SDS011;684;48.342;10.096;2022-09-09T02:46:06;9.30;;;3.63;;
1380;SDS011;684;48.342;10.096;2022-09-09T02:48:52;6.27;;;3.20;;
1380;SDS011;684;48.342;10.096;2022-09-09T02:51:28;7.60;;;3.40;;
1380;SDS011;684;48.342;10.096;2022-09-09T02:54:04;5.50;;;3.00;;
1380;SDS011;684;48.342;10.096;2022-09-09T02:56:40;5.37;;;3.10;;
1380;SDS011;684;48.342;10.096;2022-09-09T02:59:11;8.27;;;3.13;;
1380;SDS011;684;48.342;10.096;2022-09-09T03:01:38;6.20;;;3.20;;
1380;SDS011;684;48.342;10.096;2022-09-09T03:04:05;8.10;;;3.43;;
1380;SDS011;684;48.342;10.096;2022-09-09T03:06:32;11.27;;;3.93;;
1380;SDS011;684;48.342;10.096;2022-09-09T03:08:58;8.23;;;3.70;;
1380;SDS011;684;48.342;10.096;2022-09-09T03:11:26;8.37;;;4.10;;
1380;SDS011;684;48.342;10.096;2022-09-09T03:13:54;7.77;;;4.30;;
1380;SDS011;684;48.342;10.096;2022-09-09T03:16:22;8.40;;;3.67;;
1380;SDS011;684;48.342;10.096;2022-09-09T03:18:49;7.67;;;4.03;;
1380;SDS011;684;48.342;10.096;2022-09-09T03:21:17;9.90;;;4.07;;
1380;SDS011;684;48.342;10.096;2022-09-09T03:23:44;7.93;;;3.90;;
1380;SDS011;684;48.342;10.096;2022-09-09T03:26:11;12.53;;;4.00;;
1380;SDS011;684;48.342;10.096;2022-09-09T03:28:40;6.70;;;3.87;;
1380;SDS011;684;48.342;10.096;2022-09-09T03:31:06;7.40;;;3.73;;
1380;SDS011;684;48.342;10.096;2022-09-09T03:33:36;7.60;;;3.90;;
1380;SDS011;684;48.342;10.096;2022-09-09T03:36:03;6.73;;;3.60;;
1380;SDS011;684;48.342;10.096;2022-09-09T03:38:32;7.90;;;3.97;;
1380;SDS011;684;48.342;10.096;2022-09-09T03:40:59;6.93;;;4.00;;
1380;SDS011;684;48.342;10.096;2022-09-09T03:43:26;10.13;;;4.00;;
1380;SDS011;684;48.342;10.096;2022-09-09T03:45:54;7.90;;;4.10;;
1380;SDS011;684;48.342;10.096;2022-09-09T03:48:22;8.53;;;3.90;;
1380;SDS011;684;48.342;10.096;2022-09-09T03:50:51;10.67;;;3.77;;
1380;SDS011;684;48.342;10.096;2022-09-09T03:53:20;7.70;;;3.97;;
1380;SDS011;684;48.342;10.096;2022-09-09T03:55:48;7.40;;;3.40;;
1380;SDS011;684;48.342;10.096;2022-09-09T03:58:19;6.20;;;3.30;;
1380;SDS011;684;48.342;10.096;2022-09-09T04:00:52;6.83;;;2.90;;
1380;SDS011;684;48.342;10.096;2022-09-09T04:03:20;6.93;;;2.80;;
1380;SDS011;684;48.342;10.096;2022-09-09T04:05:50;7.10;;;3.17;;
1380;SDS011;684;48.342;10.096;2022-09-09T04:08:17;7.60;;;2.90;;
1380;SDS011;684;48.342;10.096;2022-09-09T04:10:45;7.20;;;2.77;;
1380;SDS011;684;48.342;10.096;2022-09-09T04:13:12;6.37;;;3.10;;
1380;SDS011;684;48.342;10.096;2022-09-09T04:15:41;8.17;;;3.37;;
1380;SDS011;684;48.342;10.096;2022-09-09T04:18:08;7.60;;;3.00;;
1380;SDS011;684;48.342;10.096;2022-09-09T04:20:35;6.00;;;3.27;;
1380;SDS011;684;48.342;10.096;2022-09-09T04:23:03;5.73;;;2.73;;
1380;SDS011;684;48.342;10.096;2022-09-09T04:25:30;7.37;;;2.70;;
1380;SDS011;684;48.342;10.096;2022-09-09T04:27:59;6.13;;;3.00;;
1380;SDS011;684;48.342;10.096;2022-09-09T04:30:25;6.73;;;2.70;;
1380;SDS011;684;48.342;10.096;2022-09-09T04:32:53;8.07;;;3.03;;
1380;SDS011;684;48.342;10.096;2022-09-09T04:35:20;13.53;;;3.37;;
1380;SDS011;684;48.342;10.096;2022-09-09T04:37:46;5.80;;;2.60;;
1380;SDS011;684;48.342;10.096;2022-09-09T04:40:15;5.83;;;3.00;;
1380;SDS011;684;48.342;10.096;2022-09-09T04:42:42;7.73;;;3.00;;
1380;SDS011;684;48.342;10.096;2022-09-09T04:45:09;9.43;;;2.90;;
1380;SDS011;684;48.342;10.096;2022-09-09T04:47:38;8.23;;;3.40;;
1380;SDS011;684;48.342;10.096;2022-09-09T04:50:05;9.40;;;3.20;;
1380;SDS011;684;48.342;10.096;2022-09-09T04:52:33;8.17;;;3.10;;
1380;SDS011;684;48.342;10.096;2022-09-09T04:55:00;8.43;;;3.67;;
1380;SDS011;684;48.342;10.096;2022-09-09T04:57:29;6.37;;;3.60;;
1380;SDS011;684;48.342;10.096;2022-09-09T04:59:57;6.90;;;3.40;;
1380;SDS011;684;48.342;10.096;2022-09-09T05:02:24;7.17;;;3.03;;
1380;SDS011;684;48.342;10.096;2022-09-09T05:04:51;15.03;;;3.50;;
1380;SDS011;684;48.342;10.096;2022-09-09T05:07:18;5.73;;;3.20;;
1380;SDS011;684;48.342;10.096;2022-09-09T05:09:45;8.17;;;3.13;;
1380;SDS011;684;48.342;10.096;2022-09-09T05:12:14;9.47;;;3.30;;
1380;SDS011;684;48.342;10.096;2022-09-09T05:14:42;7.00;;;3.70;;
1380;SDS011;684;48.342;10.096;2022-09-09T05:17:09;8.43;;;3.27;;
1380;SDS011;684;48.342;10.096;2022-09-09T05:19:36;8.37;;;3.30;;
1380;SDS011;684;48.342;10.096;2022-09-09T05:22:03;7.93;;;3.10;;
1380;SDS011;684;48.342;10.096;2022-09-09T05:24:30;5.87;;;2.70;;
1380;SDS011;684;48.342;10.096;2022-09-09T05:26:58;6.33;;;2.33;;
1380;SDS011;684;48.342;10.096;2022-09-09T05:29:26;11.07;;;3.00;;
1380;SDS011;684;48.342;10.096;2022-09-09T05:31:54;8.97;;;2.77;;
1380;SDS011;684;48.342;10.096;2022-09-09T05:34:21;7.10;;;2.87;;
1380;SDS011;684;48.342;10.096;2022-09-09T05:36:48;7.53;;;3.17;;
1380;SDS011;684;48.342;10.096;2022-09-09T05:39:14;6.30;;;2.17;;
1380;SDS011;684;48.342;10.096;2022-09-09T05:41:42;6.77;;;2.60;;
1380;SDS011;684;48.342;10.096;2022-09-09T05:44:08;6.00;;;2.30;;
1380;SDS011;684;48.342;10.096;2022-09-09T05:46:35;6.97;;;2.60;;
1380;SDS011;684;48.342;10.096;2022-09-09T05:49:03;5.97;;;2.50;;
1380;SDS011;684;48.342;10.096;2022-09-09T05:51:31;6.60;;;2.50;;
1380;SDS011;684;48.342;10.096;2022-09-09T05:53:58;8.37;;;2.03;;
1380;SDS011;684;48.342;10.096;2022-09-09T05:56:25;6.37;;;1.90;;
1380;SDS011;684;48.342;10.096;2022-09-09T05:58:53;5.20;;;1.57;;
1380;SDS011;684;48.342;10.096;2022-09-09T06:01:21;7.97;;;2.37;;
1380;SDS011;684;48.342;10.096;2022-09-09T06:03:49;5.93;;;1.83;;
1380;SDS011;684;48.342;10.096;2022-09-09T06:06:19;6.77;;;1.70;;
1380;SDS011;684;48.342;10.096;2022-09-09T06:08:47;6.07;;;1.93;;
1380;SDS011;684;48.342;10.096;2022-09-09T06:11:17;4.83;;;1.60;;
1380;SDS011;684;48.342;10.096;2022-09-09T06:13:45;5.00;;;1.50;;
1380;SDS011;684;48.342;10.096;2022-09-09T06:16:13;5.60;;;1.47;;
1380;SDS011;684;48.342;10.096;2022-09-09T06:18:41;13.00;;;1.50;;
1380;SDS011;684;48.342;10.096;2022-09-09T06:21:11;5.73;;;2.27;;
1380;SDS011;684;48.342;10.096;2022-09-09T06:23:42;5.17;;;1.70;;
1380;SDS011;684;48.342;10.096;2022-09-09T06:26:20;6.30;;;1.73;;
1380;SDS011;684;48.342;10.096;2022-09-09T06:28:49;5.57;;;1.90;;
1380;SDS011;684;48.342;10.096;2022-09-09T06:31:18;5.90;;;2.10;;
1380;SDS011;684;48.342;10.096;2022-09-09T06:33:47;8.37;;;1.73;;
1380;SDS011;684;48.342;10.096;2022-09-09T06:36:16;6.13;;;1.40;;
1380;SDS011;684;48.342;10.096;2022-09-09T06:38:44;6.47;;;1.90;;
1380;SDS011;684;48.342;10.096;2022-09-09T06:41:12;6.37;;;1.60;;
1380;SDS011;684;48.342;10.096;2022-09-09T06:43:41;5.43;;;1.53;;
1380;SDS011;684;48.342;10.096;2022-09-09T06:46:09;5.07;;;1.40;;
1380;SDS011;684;48.342;10.096;2022-09-09T06:48:38;6.10;;;2.40;;
1380;SDS011;684;48.342;10.096;2022-09-09T06:51:06;5.00;;;1.60;;
1380;SDS011;684;48.342;10.096;2022-09-09T06:53:35;9.27;;;1.90;;
1380;SDS011;684;48.342;10.096;2022-09-09T06:56:13;7.23;;;1.63;;
1380;SDS011;684;48.342;10.096;2022-09-09T06:58:46;7.50;;;1.73;;
1380;SDS011;684;48.342;10.096;2022-09-09T07:01:14;6.23;;;2.23;;
1380;SDS011;684;48.342;10.096;2022-09-09T07:03:42;5.60;;;1.60;;
1380;SDS011;684;48.342;10.096;2022-09-09T07:06:14;6.10;;;1.93;;
1380;SDS011;684;48.342;10.096;2022-09-09T07:08:42;10.03;;;2.90;;
1380;SDS011;684;48.342;10.096;2022-09-09T07:11:09;7.40;;;1.77;;
1380;SDS011;684;48.342;10.096;2022-09-09T07:13:37;4.90;;;1.60;;
1380;SDS011;684;48.342;10.096;2022-09-09T07:16:05;5.67;;;1.43;;
1380;SDS011;684;48.342;10.096;2022-09-09T07:18:33;4.87;;;1.70;;
1380;SDS011;684;48.342;10.096;2022-09-09T07:21:00;5.20;;;1.63;;
1380;SDS011;684;48.342;10.096;2022-09-09T07:23:28;3.93;;;1.27;;
1380;SDS011;684;48.342;10.096;2022-09-09T07:25:55;3.80;;;1.13;;
1380;SDS011;684;48.342;10.096;2022-09-09T07:28:22;4.93;;;2.30;;
1380;SDS011;684;48.342;10.096;2022-09-09T07:30:53;4.30;;;1.80;;
1380;SDS011;684;48.342;10.096;2022-09-09T07:33:22;7.90;;;1.80;;
1380;SDS011;684;48.342;10.096;2022-09-09T07:35:49;4.60;;;1.83;;
1380;SDS011;684;48.342;10.096;2022-09-09T07:38:16;5.70;;;1.60;;
1380;SDS011;684;48.342;10.096;2022-09-09T07:40:43;4.00;;;1.50;;
1380;SDS011;684;48.342;10.096;2022-09-09T07:43:10;6.10;;;1.47;;
1380;SDS011;684;48.342;10.096;2022-09-09T07:45:37;6.60;;;1.60;;
1380;SDS011;684;48.342;10.096;2022-09-09T07:48:05;4.77;;;1.73;;
1380;SDS011;684;48.342;10.096;2022-09-09T07:50:33;4.47;;;1.53;;
1380;SDS011;684;48.342;10.096;2022-09-09T07:53:00;3.87;;;1.63;;
1380;SDS011;684;48.342;10.096;2022-09-09T07:55:27;6.13;;;2.20;;
1380;SDS011;684;48.342;10.096;2022-09-09T07:57:55;8.07;;;1.73;;
1380;SDS011;684;48.342;10.096;2022-09-09T08:00:22;7.77;;;1.73;;
1380;SDS011;684;48.342;10.096;2022-09-09T08:02:49;4.77;;;1.73;;
1380;SDS011;684;48.342;10.096;2022-09-09T08:05:17;4.07;;;1.50;;
1380;SDS011;684;48.342;10.096;2022-09-09T08:07:45;4.60;;;1.73;;
1380;SDS011;684;48.342;10.096;2022-09-09T08:10:12;5.00;;;1.90;;
1380;SDS011;684;48.342;10.096;2022-09-09T08:12:39;5.10;;;1.50;;
1380;SDS011;684;48.342;10.096;2022-09-09T08:15:06;7.60;;;1.90;;
1380;SDS011;684;48.342;10.096;2022-09-09T08:17:34;5.43;;;2.13;;
1380;SDS011;684;48.342;10.096;2022-09-09T08:20:02;5.43;;;2.10;;
1380;SDS011;684;48.342;10.096;2022-09-09T08:22:32;4.67;;;1.60;;
1380;SDS011;684;48.342;10.096;2022-09-09T08:25:00;6.10;;;1.37;;
1380;SDS011;684;48.342;10.096;2022-09-09T08:27:27;8.20;;;1.97;;
1380;SDS011;684;48.342;10.096;2022-09-09T08:29:54;4.80;;;1.37;;
1380;SDS011;684;48.342;10.096;2022-09-09T08:32:21;6.20;;;1.83;;
1380;SDS011;684;48.342;10.096;2022-09-09T08:34:48;7.60;;;1.60;;
1380;SDS011;684;48.342;10.096;2022-09-09T08:37:16;3.90;;;1.40;;
1380;SDS011;684;48.342;10.096;2022-09-09T08:39:44;6.60;;;1.47;;
1380;SDS011;684;48.342;10.096;2022-09-09T08:42:25;5.97;;;1.73;;
1380;SDS011;684;48.342;10.096;2022-09-09T08:48:00;4.63;;;1.50;;
1380;SDS011;684;48.342;10.096;2022-09-09T08:50:35;4.30;;;1.13;;
1380;SDS011;684;48.342;10.096;2022-09-09T08:53:08;5.33;;;1.43;;
1380;SDS011;684;48.342;10.096;2022-09-09T08:55:40;5.10;;;1.33;;
1380;SDS011;684;48.342;10.096;2022-09-09T08:58:13;6.20;;;1.97;;
1380;SDS011;684;48.342;10.096;2022-09-09T09:00:45;5.13;;;1.27;;
1380;SDS011;684;48.342;10.096;2022-09-09T09:03:22;4.13;;;1.33;;
1380;SDS011;684;48.342;10.096;2022-09-09T09:05:57;5.40;;;1.20;;
1380;SDS011;684;48.342;10.096;2022-09-09T09:08:35;4.10;;;1.23;;
1380;SDS011;684;48.342;10.096;2022-09-09T09:11:08;7.33;;;1.60;;
1380;SDS011;684;48.342;10.096;2022-09-09T09:13:38;4.13;;;1.13;;
1380;SDS011;684;48.342;10.096;2022-09-09T09:16:11;5.57;;;1.50;;
1380;SDS011;684;48.342;10.096;2022-09-09T09:18:44;6.17;;;1.63;;
1380;SDS011;684;48.342;10.096;2022-09-09T09:21:12;3.33;;;1.13;;
1380;SDS011;684;48.342;10.096;2022-09-09T09:23:45;4.63;;;1.30;;
1380;SDS011;684;48.342;10.096;2022-09-09T09:26:16;5.10;;;1.27;;
1380;SDS011;684;48.342;10.096;2022-09-09T09:28:45;6.40;;;1.23;;
1380;SDS011;684;48.342;10.096;2022-09-09T09:31:12;5.20;;;1.27;;
1380;SDS011;684;48.342;10.096;2022-09-09T09:33:43;5.37;;;1.40;;
1380;SDS011;684;48.342;10.096;2022-09-09T09:36:14;4.33;;;1.20;;
1380;SDS011;684;48.342;10.096;2022-09-09T09:38:51;4.80;;;1.37;;
1380;SDS011;684;48.342;10.096;2022-09-09T09:41:28;3.33;;;1.23;;
1380;SDS011;684;48.342;10.096;2022-09-09T09:43:57;4.37;;;1.17;;
1380;SDS011;684;48.342;10.096;2022-09-09T09:46:25;3.17;;;0.83;;
1380;SDS011;684;48.342;10.096;2022-09-09T09:48:56;3.27;;;0.90;;
1380;SDS011;684;48.342;10.096;2022-09-09T09:51:23;3.67;;;1.07;;
1380;SDS011;684;48.342;10.096;2022-09-09T09:53:51;6.17;;;1.33;;
1380;SDS011;684;48.342;10.096;2022-09-09T09:56:25;5.00;;;1.07;;
1380;SDS011;684;48.342;10.096;2022-09-09T09:58:54;5.23;;;1.00;;
1380;SDS011;684;48.342;10.096;2022-09-09T10:01:23;4.77;;;0.90;;
1380;SDS011;684;48.342;10.096;2022-09-09T10:03:53;4.83;;;1.30;;
1380;SDS011;684;48.342;10.096;2022-09-09T10:06:29;4.93;;;1.80;;
1380;SDS011;684;48.342;10.096;2022-09-09T10:08:58;3.83;;;1.03;;
1380;SDS011;684;48.342;10.096;2022-09-09T10:11:29;3.30;;;0.60;;
1380;SDS011;684;48.342;10.096;2022-09-09T10:14:05;3.97;;;1.00;;
1380;SDS011;684;48.342;10.096;2022-09-09T10:16:48;5.03;;;1.20;;
1380;SDS011;684;48.342;10.096;2022-09-09T10:19:27;4.50;;;1.43;;
1380;SDS011;684;48.342;10.096;2022-09-09T10:22:01;3.63;;;1.00;;
1380;SDS011;684;48.342;10.096;2022-09-09T10:27:37;8.13;;;1.27;;
1380;SDS011;684;48.342;10.096;2022-09-09T10:30:13;6.27;;;1.10;;
1380;SDS011;684;48.342;10.096;2022-09-09T10:32:48;4.80;;;1.20;;
1380;SDS011;684;48.342;10.096;2022-09-09T10:35:24;3.07;;;0.90;;
1380;SDS011;684;48.342;10.096;2022-09-09T10:38:01;3.63;;;1.03;;
1380;SDS011;684;48.342;10.096;2022-09-09T10:40:42;4.20;;;0.90;;
1380;SDS011;684;48.342;10.096;2022-09-09T10:43:18;3.37;;;0.70;;
1380;SDS011;684;48.342;10.096;2022-09-09T10:45:59;3.60;;;0.93;;
1380;SDS011;684;48.342;10.096;2022-09-09T10:48:37;3.37;;;0.90;;
1380;SDS011;684;48.342;10.096;2022-09-09T10:51:20;3.20;;;0.70;;
1380;SDS011;684;48.342;10.096;2022-09-09T10:54:01;3.23;;;0.80;;
1380;SDS011;684;48.342;10.096;2022-09-09T10:56:39;4.67;;;0.90;;
1380;SDS011;684;48.342;10.096;2022-09-09T10:59:10;3.03;;;0.73;;
1380;SDS011;684;48.342;10.096;2022-09-09T11:01:41;4.03;;;0.97;;
1380;SDS011;684;48.342;10.096;2022-09-09T11:04:15;8.10;;;1.33;;
1380;SDS011;684;48.342;10.096;2022-09-09T11:06:48;4.30;;;1.13;;
1380;SDS011;684;48.342;10.096;2022-09-09T11:09:19;7.20;;;0.90;;
1380;SDS011;684;48.342;10.096;2022-09-09T11:11:50;3.93;;;0.87;;
1380;SDS011;684;48.342;10.096;2022-09-09T11:14:19;3.77;;;0.70;;
1380;SDS011;684;48.342;10.096;2022-09-09T11:16:53;3.63;;;0.70;;
1380;SDS011;684;48.342;10.096;2022-09-09T11:19:27;3.77;;;0.80;;
1380;SDS011;684;48.342;10.096;2022-09-09T11:22:00;4.40;;;0.77;;
1380;SDS011;684;48.342;10.096;2022-09-09T11:24:33;4.10;;;0.90;;
1380;SDS011;684;48.342;10.096;2022-09-09T11:27:07;3.60;;;0.70;;
1380;SDS011;684;48.342;10.096;2022-09-09T11:32:54;4.47;;;1.00;;
1380;SDS011;684;48.342;10.096;2022-09-09T11:35:40;5.20;;;0.80;;
1380;SDS011;684;48.342;10.096;2022-09-09T11:38:21;6.23;;;0.80;;
1380;SDS011;684;48.342;10.096;2022-09-09T11:40:55;4.17;;;1.23;;
1380;SDS011;684;48.342;10.096;2022-09-09T11:43:25;7.03;;;1.10;;
1380;SDS011;684;48.342;10.096;2022-09-09T11:45:57;4.07;;;0.70;;
1380;SDS011;684;48.342;10.096;2022-09-09T11:48:29;6.30;;;0.90;;
1380;SDS011;684;48.342;10.096;2022-09-09T11:51:01;6.10;;;1.33;;
1380;SDS011;684;48.342;10.096;2022-09-09T11:53:32;4.93;;;1.00;;
1380;SDS011;684;48.342;10.096;2022-09-09T11:56:00;5.63;;;1.43;;
1380;SDS011;684;48.342;10.096;2022-09-09T11:58:31;6.57;;;2.70;;
1380;SDS011;684;48.342;10.096;2022-09-09T12:01:12;8.53;;;1.83;;
1380;SDS011;684;48.342;10.096;2022-09-09T12:03:55;4.43;;;0.90;;
1380;SDS011;684;48.342;10.096;2022-09-09T12:06:43;6.20;;;1.00;;
1380;SDS011;684;48.342;10.096;2022-09-09T12:09:18;4.07;;;1.03;;
1380;SDS011;684;48.342;10.096;2022-09-09T12:12:04;4.30;;;0.90;;
1380;SDS011;684;48.342;10.096;2022-09-09T12:14:35;3.90;;;0.80;;
1380;SDS011;684;48.342;10.096;2022-09-09T12:17:10;5.67;;;1.20;;
1380;SDS011;684;48.342;10.096;2022-09-09T12:19:45;6.60;;;0.70;;
1380;SDS011;684;48.342;10.096;2022-09-09T12:22:16;3.53;;;0.83;;
1380;SDS011;684;48.342;10.096;2022-09-09T12:24:53;5.10;;;0.80;;
1380;SDS011;684;48.342;10.096;2022-09-09T12:27:27;5.20;;;0.93;;
1380;SDS011;684;48.342;10.096;2022-09-09T12:30:00;3.97;;;0.77;;
1380;SDS011;684;48.342;10.096;2022-09-09T12:32:29;4.53;;;0.90;;
1380;SDS011;684;48.342;10.096;2022-09-09T12:34:57;3.67;;;1.23;;
1380;SDS011;684;48.342;10.096;2022-09-09T12:37:29;3.60;;;0.80;;
1380;SDS011;684;48.342;10.096;2022-09-09T12:40:00;3.57;;;1.00;;
1380;SDS011;684;48.342;10.096;2022-09-09T12:42:29;4.30;;;1.10;;
1380;SDS011;684;48.342;10.096;2022-09-09T12:44:58;8.87;;;1.60;;
1380;SDS011;684;48.342;10.096;2022-09-09T12:47:30;5.70;;;1.40;;
1380;SDS011;684;48.342;10.096;2022-09-09T12:50:04;5.70;;;0.93;;
1380;SDS011;684;48.342;10.096;2022-09-09T12:52:33;3.40;;;0.60;;
1380;SDS011;684;48.342;10.096;2022-09-09T12:55:04;5.97;;;1.03;;
1380;SDS011;684;48.342;10.096;2022-09-09T12:57:34;3.70;;;0.70;;
1380;SDS011;684;48.342;10.096;2022-09-09T13:00:04;3.97;;;0.63;;
1380;SDS011;684;48.342;10.096;2022-09-09T13:02:36;4.17;;;0.97;;
1380;SDS011;684;48.342;10.096;2022-09-09T13:05:13;3.63;;;0.60;;
1380;SDS011;684;48.342;10.096;2022-09-09T13:07:44;7.17;;;1.20;;
1380;SDS011;684;48.342;10.096;2022-09-09T13:10:12;4.93;;;1.53;;
1380;SDS011;684;48.342;10.096;2022-09-09T13:12:40;5.53;;;1.10;;
1380;SDS011;684;48.342;10.096;2022-09-09T13:15:14;3.80;;;1.00;;
1380;SDS011;684;48.342;10.096;2022-09-09T13:17:51;3.40;;;0.70;;
1380;SDS011;684;48.342;10.096;2022-09-09T13:20:20;4.70;;;1.00;;
1380;SDS011;684;48.342;10.096;2022-09-09T13:22:49;6.10;;;1.20;;
1380;SDS011;684;48.342;10.096;2022-09-09T13:25:18;4.10;;;1.00;;
1380;SDS011;684;48.342;10.096;2022-09-09T13:27:52;3.60;;;0.97;;
1380;SDS011;684;48.342;10.096;2022-09-09T13:30:24;3.93;;;1.07;;
1380;SDS011;684;48.342;10.096;2022-09-09T13:33:06;4.93;;;1.07;;
1380;SDS011;684;48.342;10.096;2022-09-09T13:35:49;4.40;;;0.80;;
1380;SDS011;684;48.342;10.096;2022-09-09T13:38:19;3.87;;;0.90;;
1380;SDS011;684;48.342;10.096;2022-09-09T13:40:53;3.60;;;1.00;;
1380;SDS011;684;48.342;10.096;2022-09-09T13:43:27;3.93;;;0.63;;
1380;SDS011;684;48.342;10.096;2022-09-09T13:45:56;4.03;;;0.80;;
1380;SDS011;684;48.342;10.096;2022-09-09T13:48:24;4.47;;;1.00;;
1380;SDS011;684;48.342;10.096;2022-09-09T13:50:55;5.13;;;0.80;;
1380;SDS011;684;48.342;10.096;2022-09-09T13:53:25;4.27;;;0.80;;
1380;SDS011;684;48.342;10.096;2022-09-09T13:55:52;4.83;;;1.17;;
1380;SDS011;684;48.342;10.096;2022-09-09T13:58:19;4.30;;;1.07;;
1380;SDS011;684;48.342;10.096;2022-09-09T14:00:47;3.90;;;1.30;;
1380;SDS011;684;48.342;10.096;2022-09-09T14:03:14;6.70;;;1.13;;
1380;SDS011;684;48.342;10.096;2022-09-09T14:05:41;5.37;;;1.10;;
1380;SDS011;684;48.342;10.096;2022-09-09T14:08:11;5.63;;;1.00;;
1380;SDS011;684;48.342;10.096;2022-09-09T14:10:44;3.83;;;0.80;;
1380;SDS011;684;48.342;10.096;2022-09-09T14:13:10;5.17;;;1.50;;
1380;SDS011;684;48.342;10.096;2022-09-09T14:15:37;3.50;;;0.90;;
1380;SDS011;684;48.342;10.096;2022-09-09T14:18:04;4.20;;;0.90;;
1380;SDS011;684;48.342;10.096;2022-09-09T14:20:31;3.60;;;1.00;;
1380;SDS011;684;48.342;10.096;2022-09-09T14:22:58;4.43;;;0.90;;
1380;SDS011;684;48.342;10.096;2022-09-09T14:25:24;3.27;;;0.73;;
1380;SDS011;684;48.342;10.096;2022-09-09T14:27:53;5.40;;;1.00;;
1380;SDS011;684;48.342;10.096;2022-09-09T14:30:21;4.03;;;0.83;;
1380;SDS011;684;48.342;10.096;2022-09-09T14:32:48;6.63;;;1.73;;
1380;SDS011;684;48.342;10.096;2022-09-09T14:35:14;3.63;;;1.00;;
1380;SDS011;684;48.342;10.096;2022-09-09T14:37:42;4.40;;;0.90;;
1380;SDS011;684;48.342;10.096;2022-09-09T14:40:09;5.13;;;0.97;;
1380;SDS011;684;48.342;10.096;2022-09-09T14:42:37;5.23;;;0.90;;
1380;SDS011;684;48.342;10.096;2022-09-09T14:45:06;3.90;;;1.00;;
1380;SDS011;684;48.342;10.096;2022-09-09T14:47:33;4.20;;;1.10;;
1380;SDS011;684;48.342;10.096;2022-09-09T14:50:01;4.70;;;1.20;;
1380;SDS011;684;48.342;10.096;2022-09-09T14:52:29;4.57;;;1.10;;
1380;SDS011;684;48.342;10.096;2022-09-09T14:54:56;5.53;;;1.10;;
1380;SDS011;684;48.342;10.096;2022-09-09T14:57:23;5.10;;;0.90;;
1380;SDS011;684;48.342;10.096;2022-09-09T14:59:50;4.03;;;0.80;;
1380;SDS011;684;48.342;10.096;2022-09-09T15:02:18;13.33;;;1.20;;
1380;SDS011;684;48.342;10.096;2022-09-09T15:04:45;3.33;;;0.70;;
1380;SDS011;684;48.342;10.096;2022-09-09T15:07:11;4.43;;;1.10;;
1380;SDS011;684;48.342;10.096;2022-09-09T15:09:38;3.67;;;0.70;;
1380;SDS011;684;48.342;10.096;2022-09-09T15:12:05;3.57;;;0.80;;
1380;SDS011;684;48.342;10.096;2022-09-09T15:14:32;5.83;;;1.10;;
1380;SDS011;684;48.342;10.096;2022-09-09T15:17:00;6.03;;;1.33;;
1380;SDS011;684;48.342;10.096;2022-09-09T15:19:28;4.73;;;1.07;;
1380;SDS011;684;48.342;10.096;2022-09-09T15:21:55;7.03;;;1.50;;
1380;SDS011;684;48.342;10.096;2022-09-09T15:24:21;5.10;;;1.03;;
1380;SDS011;684;48.342;10.096;2022-09-09T15:26:48;5.17;;;1.03;;
1380;SDS011;684;48.342;10.096;2022-09-09T15:29:15;4.10;;;0.80;;
1380;SDS011;684;48.342;10.096;2022-09-09T15:31:43;4.90;;;1.00;;
1380;SDS011;684;48.342;10.096;2022-09-09T15:34:10;7.57;;;0.80;;
1380;SDS011;684;48.342;10.096;2022-09-09T15:36:40;5.20;;;0.70;;
1380;SDS011;684;48.342;10.096;2022-09-09T15:39:09;4.40;;;0.90;;
1380;SDS011;684;48.342;10.096;2022-09-09T15:41:37;4.00;;;0.60;;
1380;SDS011;684;48.342;10.096;2022-09-09T15:44:05;3.97;;;1.00;;